sensor_id;sensor_type;location;lat;lon;timestamp;P1;durP1;ratioP1;P2;durP2;ratioP2
66893;SDS011;53801;55.786;49.142;2023-08-01T00:01:58;6.10;;;1.85;;
66893;SDS011;53801;55.786;49.142;2023-08-01T00:04:24;5.47;;;1.60;;
66893;SDS011;53801;55.786;49.142;2023-08-01T00:06:49;2.25;;;1.67;;
66893;SDS011;53801;55.786;49.142;2023-08-01T00:09:18;2.67;;;1.83;;
66893;SDS011;53801;55.786;49.142;2023-08-01T00:11:44;2.75;;;1.70;;
66893;SDS011;53801;55.786;49.142;2023-08-01T00:14:09;4.87;;;1.70;;
66893;SDS011;53801;55.786;49.142;2023-08-01T00:16:39;3.78;;;1.88;;
66893;SDS011;53801;55.786;49.142;2023-08-01T00:19:15;3.47;;;1.90;;
66893;SDS011;53801;55.786;49.142;2023-08-01T00:21:41;3.05;;;2.25;;
66893;SDS011;53801;55.786;49.142;2023-08-01T00:24:11;3.67;;;2.40;;
66893;SDS011;53801;55.786;49.142;2023-08-01T00:26:48;3.08;;;2.00;;
66893;SDS011;53801;55.786;49.142;2023-08-01T00:29:24;3.00;;;1.77;;
66893;SDS011;53801;55.786;49.142;2023-08-01T00:31:52;3.33;;;1.70;;
66893;SDS011;53801;55.786;49.142;2023-08-01T00:34:17;3.88;;;1.70;;
66893;SDS011;53801;55.786;49.142;2023-08-01T00:36:43;2.80;;;1.77;;
66893;SDS011;53801;55.786;49.142;2023-08-01T00:39:08;2.95;;;2.00;;
66893;SDS011;53801;55.786;49.142;2023-08-01T00:41:39;3.28;;;1.92;;
66893;SDS011;53801;55.786;49.142;2023-08-01T00:44:08;3.33;;;2.17;;
66893;SDS011;53801;55.786;49.142;2023-08-01T00:46:33;2.67;;;1.80;;
66893;SDS011;53801;55.786;49.142;2023-08-01T00:48:59;4.10;;;2.00;;
66893;SDS011;53801;55.786;49.142;2023-08-01T00:51:26;3.15;;;1.95;;
66893;SDS011;53801;55.786;49.142;2023-08-01T00:53:54;4.70;;;2.33;;
66893;SDS011;53801;55.786;49.142;2023-08-01T00:56:20;4.50;;;2.13;;
66893;SDS011;53801;55.786;49.142;2023-08-01T00:58:46;5.43;;;2.80;;
66893;SDS011;53801;55.786;49.142;2023-08-01T01:01:13;4.83;;;3.40;;
66893;SDS011;53801;55.786;49.142;2023-08-01T01:03:39;6.55;;;3.83;;
66893;SDS011;53801;55.786;49.142;2023-08-01T01:06:09;7.17;;;4.37;;
66893;SDS011;53801;55.786;49.142;2023-08-01T01:08:37;6.32;;;4.63;;
66893;SDS011;53801;55.786;49.142;2023-08-01T01:11:02;7.53;;;4.70;;
66893;SDS011;53801;55.786;49.142;2023-08-01T01:13:29;6.93;;;5.05;;
66893;SDS011;53801;55.786;49.142;2023-08-01T01:15:55;8.60;;;5.17;;
66893;SDS011;53801;55.786;49.142;2023-08-01T01:18:20;7.83;;;5.47;;
66893;SDS011;53801;55.786;49.142;2023-08-01T01:20:45;7.68;;;5.80;;
66893;SDS011;53801;55.786;49.142;2023-08-01T01:25:46;7.15;;;5.22;;
66893;SDS011;53801;55.786;49.142;2023-08-01T01:28:12;7.63;;;4.23;;
66893;SDS011;53801;55.786;49.142;2023-08-01T01:30:41;8.43;;;5.07;;
66893;SDS011;53801;55.786;49.142;2023-08-01T01:33:09;6.18;;;4.57;;
66893;SDS011;53801;55.786;49.142;2023-08-01T01:35:41;8.27;;;5.32;;
66893;SDS011;53801;55.786;49.142;2023-08-01T01:38:07;5.87;;;3.70;;
66893;SDS011;53801;55.786;49.142;2023-08-01T01:40:33;5.20;;;3.17;;
66893;SDS011;53801;55.786;49.142;2023-08-01T01:43:20;4.23;;;3.10;;
66893;SDS011;53801;55.786;49.142;2023-08-01T01:45:55;4.20;;;2.65;;
66893;SDS011;53801;55.786;49.142;2023-08-01T01:48:20;6.03;;;2.70;;
66893;SDS011;53801;55.786;49.142;2023-08-01T01:50:55;5.40;;;2.30;;
66893;SDS011;53801;55.786;49.142;2023-08-01T01:53:21;6.65;;;2.42;;
66893;SDS011;53801;55.786;49.142;2023-08-01T01:55:47;4.40;;;2.07;;
66893;SDS011;53801;55.786;49.142;2023-08-01T01:58:12;8.65;;;2.60;;
66893;SDS011;53801;55.786;49.142;2023-08-01T02:00:38;4.40;;;2.17;;
66893;SDS011;53801;55.786;49.142;2023-08-01T02:03:03;4.60;;;2.03;;
66893;SDS011;53801;55.786;49.142;2023-08-01T02:05:29;4.25;;;1.90;;
66893;SDS011;53801;55.786;49.142;2023-08-01T02:07:55;4.03;;;2.00;;
66893;SDS011;53801;55.786;49.142;2023-08-01T02:10:20;4.15;;;2.20;;
66893;SDS011;53801;55.786;49.142;2023-08-01T02:12:46;4.57;;;2.47;;
66893;SDS011;53801;55.786;49.142;2023-08-01T02:15:15;4.72;;;2.40;;
66893;SDS011;53801;55.786;49.142;2023-08-01T02:17:40;5.53;;;2.03;;
66893;SDS011;53801;55.786;49.142;2023-08-01T02:20:26;4.43;;;2.28;;
66893;SDS011;53801;55.786;49.142;2023-08-01T02:22:53;8.20;;;2.72;;
66893;SDS011;53801;55.786;49.142;2023-08-01T02:25:19;4.90;;;2.20;;
66893;SDS011;53801;55.786;49.142;2023-08-01T02:27:45;5.35;;;2.65;;
66893;SDS011;53801;55.786;49.142;2023-08-01T02:30:11;4.47;;;2.40;;
66893;SDS011;53801;55.786;49.142;2023-08-01T02:32:36;5.85;;;2.47;;
66893;SDS011;53801;55.786;49.142;2023-08-01T02:35:02;4.78;;;2.25;;
66893;SDS011;53801;55.786;49.142;2023-08-01T02:37:32;3.63;;;2.35;;
66893;SDS011;53801;55.786;49.142;2023-08-01T02:39:57;4.43;;;2.37;;
66893;SDS011;53801;55.786;49.142;2023-08-01T02:42:23;4.90;;;2.40;;
66893;SDS011;53801;55.786;49.142;2023-08-01T02:44:49;4.35;;;2.25;;
66893;SDS011;53801;55.786;49.142;2023-08-01T02:47:18;4.83;;;2.80;;
66893;SDS011;53801;55.786;49.142;2023-08-01T02:49:44;3.70;;;2.60;;
66893;SDS011;53801;55.786;49.142;2023-08-01T02:52:09;3.60;;;2.60;;
66893;SDS011;53801;55.786;49.142;2023-08-01T02:54:35;3.90;;;3.13;;
66893;SDS011;53801;55.786;49.142;2023-08-01T02:57:01;4.97;;;3.23;;
66893;SDS011;53801;55.786;49.142;2023-08-01T02:59:26;10.13;;;3.65;;
66893;SDS011;53801;55.786;49.142;2023-08-01T03:01:52;4.03;;;2.92;;
66893;SDS011;53801;55.786;49.142;2023-08-01T03:04:17;3.70;;;3.00;;
66893;SDS011;53801;55.786;49.142;2023-08-01T03:06:42;7.27;;;2.70;;
66893;SDS011;53801;55.786;49.142;2023-08-01T03:09:08;7.28;;;3.05;;
66893;SDS011;53801;55.786;49.142;2023-08-01T03:11:37;5.82;;;3.10;;
66893;SDS011;53801;55.786;49.142;2023-08-01T03:14:02;6.68;;;3.35;;
66893;SDS011;53801;55.786;49.142;2023-08-01T03:16:30;6.17;;;3.20;;
66893;SDS011;53801;55.786;49.142;2023-08-01T03:18:55;6.97;;;3.30;;
66893;SDS011;53801;55.786;49.142;2023-08-01T03:21:21;5.90;;;3.10;;
66893;SDS011;53801;55.786;49.142;2023-08-01T03:23:46;7.38;;;3.30;;
66893;SDS011;53801;55.786;49.142;2023-08-01T03:26:12;6.07;;;2.80;;
66893;SDS011;53801;55.786;49.142;2023-08-01T03:28:37;7.10;;;3.27;;
66893;SDS011;53801;55.786;49.142;2023-08-01T03:31:03;7.53;;;3.80;;
66893;SDS011;53801;55.786;49.142;2023-08-01T03:33:28;9.30;;;3.50;;
66893;SDS011;53801;55.786;49.142;2023-08-01T03:35:54;8.07;;;3.37;;
66893;SDS011;53801;55.786;49.142;2023-08-01T03:38:19;7.43;;;3.60;;
66893;SDS011;53801;55.786;49.142;2023-08-01T03:40:45;11.93;;;3.63;;
66893;SDS011;53801;55.786;49.142;2023-08-01T03:43:10;11.83;;;3.30;;
66893;SDS011;53801;55.786;49.142;2023-08-01T03:45:36;8.63;;;3.47;;
66893;SDS011;53801;55.786;49.142;2023-08-01T03:48:01;7.32;;;3.60;;
66893;SDS011;53801;55.786;49.142;2023-08-01T03:50:27;6.73;;;3.50;;
66893;SDS011;53801;55.786;49.142;2023-08-01T03:52:52;6.67;;;2.90;;
66893;SDS011;53801;55.786;49.142;2023-08-01T03:55:18;8.77;;;3.80;;
66893;SDS011;53801;55.786;49.142;2023-08-01T03:57:43;7.82;;;3.35;;
66893;SDS011;53801;55.786;49.142;2023-08-01T04:00:09;11.47;;;3.43;;
66893;SDS011;53801;55.786;49.142;2023-08-01T04:02:42;7.53;;;3.28;;
66893;SDS011;53801;55.786;49.142;2023-08-01T04:05:08;6.78;;;2.83;;
66893;SDS011;53801;55.786;49.142;2023-08-01T04:07:37;11.75;;;3.47;;
66893;SDS011;53801;55.786;49.142;2023-08-01T04:10:03;4.53;;;2.72;;
66893;SDS011;53801;55.786;49.142;2023-08-01T04:12:31;5.50;;;3.97;;
66893;SDS011;53801;55.786;49.142;2023-08-01T04:14:57;7.20;;;3.33;;
66893;SDS011;53801;55.786;49.142;2023-08-01T04:17:23;7.00;;;3.10;;
66893;SDS011;53801;55.786;49.142;2023-08-01T04:19:48;6.93;;;3.00;;
66893;SDS011;53801;55.786;49.142;2023-08-01T04:22:13;10.00;;;3.60;;
66893;SDS011;53801;55.786;49.142;2023-08-01T04:24:39;7.43;;;3.20;;
66893;SDS011;53801;55.786;49.142;2023-08-01T04:27:04;5.90;;;3.27;;
66893;SDS011;53801;55.786;49.142;2023-08-01T04:29:30;7.03;;;3.40;;
66893;SDS011;53801;55.786;49.142;2023-08-01T04:31:56;5.57;;;2.88;;
66893;SDS011;53801;55.786;49.142;2023-08-01T04:34:22;7.07;;;3.27;;
66893;SDS011;53801;55.786;49.142;2023-08-01T04:36:47;7.75;;;3.25;;
66893;SDS011;53801;55.786;49.142;2023-08-01T04:39:13;7.37;;;3.10;;
66893;SDS011;53801;55.786;49.142;2023-08-01T04:41:38;5.72;;;3.03;;
66893;SDS011;53801;55.786;49.142;2023-08-01T04:44:04;6.27;;;2.90;;
66893;SDS011;53801;55.786;49.142;2023-08-01T04:46:29;6.53;;;2.80;;
66893;SDS011;53801;55.786;49.142;2023-08-01T04:48:55;6.57;;;3.30;;
66893;SDS011;53801;55.786;49.142;2023-08-01T04:51:20;5.90;;;2.58;;
66893;SDS011;53801;55.786;49.142;2023-08-01T04:53:46;7.80;;;2.70;;
66893;SDS011;53801;55.786;49.142;2023-08-01T04:56:11;5.70;;;2.63;;
66893;SDS011;53801;55.786;49.142;2023-08-01T04:58:36;6.43;;;2.92;;
66893;SDS011;53801;55.786;49.142;2023-08-01T05:01:02;5.47;;;2.80;;
66893;SDS011;53801;55.786;49.142;2023-08-01T05:03:28;5.70;;;2.97;;
66893;SDS011;53801;55.786;49.142;2023-08-01T05:05:53;5.55;;;3.30;;
66893;SDS011;53801;55.786;49.142;2023-08-01T05:08:19;7.03;;;3.50;;
66893;SDS011;53801;55.786;49.142;2023-08-01T05:10:44;7.03;;;3.40;;
66893;SDS011;53801;55.786;49.142;2023-08-01T05:13:10;7.07;;;3.80;;
66893;SDS011;53801;55.786;49.142;2023-08-01T05:15:35;6.73;;;3.40;;
66893;SDS011;53801;55.786;49.142;2023-08-01T05:18:01;7.57;;;4.10;;
66893;SDS011;53801;55.786;49.142;2023-08-01T05:20:27;5.50;;;3.70;;
66893;SDS011;53801;55.786;49.142;2023-08-01T05:23:44;6.18;;;3.63;;
66893;SDS011;53801;55.786;49.142;2023-08-01T05:26:47;7.05;;;4.13;;
66893;SDS011;53801;55.786;49.142;2023-08-01T05:29:13;6.35;;;3.63;;
66893;SDS011;53801;55.786;49.142;2023-08-01T05:31:38;6.80;;;3.50;;
66893;SDS011;53801;55.786;49.142;2023-08-01T05:34:04;5.80;;;2.97;;
66893;SDS011;53801;55.786;49.142;2023-08-01T05:36:29;4.85;;;2.75;;
66893;SDS011;53801;55.786;49.142;2023-08-01T05:38:55;8.80;;;3.97;;
66893;SDS011;53801;55.786;49.142;2023-08-01T05:41:20;8.20;;;3.40;;
66893;SDS011;53801;55.786;49.142;2023-08-01T05:43:47;8.10;;;3.85;;
66893;SDS011;53801;55.786;49.142;2023-08-01T05:46:15;5.63;;;3.45;;
66893;SDS011;53801;55.786;49.142;2023-08-01T05:48:41;12.13;;;4.37;;
66893;SDS011;53801;55.786;49.142;2023-08-01T05:51:06;5.33;;;3.30;;
66893;SDS011;53801;55.786;49.142;2023-08-01T05:53:32;9.27;;;3.75;;
66893;SDS011;53801;55.786;49.142;2023-08-01T05:55:58;9.53;;;3.80;;
66893;SDS011;53801;55.786;49.142;2023-08-01T05:58:23;7.18;;;3.63;;
66893;SDS011;53801;55.786;49.142;2023-08-01T06:00:49;6.83;;;3.80;;
66893;SDS011;53801;55.786;49.142;2023-08-01T06:03:14;9.63;;;5.10;;
66893;SDS011;53801;55.786;49.142;2023-08-01T06:05:40;8.15;;;4.72;;
66893;SDS011;53801;55.786;49.142;2023-08-01T06:08:06;9.73;;;3.97;;
66893;SDS011;53801;55.786;49.142;2023-08-01T06:10:31;6.38;;;3.05;;
66893;SDS011;53801;55.786;49.142;2023-08-01T06:12:57;7.03;;;3.35;;
66893;SDS011;53801;55.786;49.142;2023-08-01T06:15:22;7.30;;;3.90;;
66893;SDS011;53801;55.786;49.142;2023-08-01T06:17:48;5.73;;;3.33;;
66893;SDS011;53801;55.786;49.142;2023-08-01T06:20:13;7.68;;;3.60;;
66893;SDS011;53801;55.786;49.142;2023-08-01T06:22:39;4.70;;;3.00;;
66893;SDS011;53801;55.786;49.142;2023-08-01T06:25:05;6.53;;;3.05;;
66893;SDS011;53801;55.786;49.142;2023-08-01T06:27:31;8.40;;;3.43;;
66893;SDS011;53801;55.786;49.142;2023-08-01T06:29:56;4.80;;;2.90;;
66893;SDS011;53801;55.786;49.142;2023-08-01T06:32:21;4.25;;;2.75;;
66893;SDS011;53801;55.786;49.142;2023-08-01T06:34:47;5.97;;;3.30;;
66893;SDS011;53801;55.786;49.142;2023-08-01T06:37:12;5.07;;;3.37;;
66893;SDS011;53801;55.786;49.142;2023-08-01T06:39:38;9.37;;;3.13;;
66893;SDS011;53801;55.786;49.142;2023-08-01T06:42:04;4.45;;;2.90;;
66893;SDS011;53801;55.786;49.142;2023-08-01T06:44:29;4.80;;;2.57;;
66893;SDS011;53801;55.786;49.142;2023-08-01T06:46:55;3.72;;;2.40;;
66893;SDS011;53801;55.786;49.142;2023-08-01T06:49:20;4.93;;;2.40;;
66893;SDS011;53801;55.786;49.142;2023-08-01T06:51:48;4.47;;;2.30;;
66893;SDS011;53801;55.786;49.142;2023-08-01T06:54:13;3.90;;;2.37;;
66893;SDS011;53801;55.786;49.142;2023-08-01T06:56:39;5.97;;;2.40;;
66893;SDS011;53801;55.786;49.142;2023-08-01T06:59:04;4.50;;;2.28;;
66893;SDS011;53801;55.786;49.142;2023-08-01T11:20:02;4.57;;;1.65;;
66893;SDS011;53801;55.786;49.142;2023-08-01T11:22:29;6.13;;;1.43;;
66893;SDS011;53801;55.786;49.142;2023-08-01T11:24:54;3.80;;;1.80;;
66893;SDS011;53801;55.786;49.142;2023-08-01T11:27:20;2.33;;;1.87;;
66893;SDS011;53801;55.786;49.142;2023-08-01T11:32:23;5.17;;;2.00;;
66893;SDS011;53801;55.786;49.142;2023-08-01T11:37:36;2.65;;;1.95;;
66893;SDS011;53801;55.786;49.142;2023-08-01T11:40:06;7.60;;;2.35;;
66893;SDS011;53801;55.786;49.142;2023-08-01T11:42:40;5.38;;;2.05;;
66893;SDS011;53801;55.786;49.142;2023-08-01T11:45:15;3.00;;;1.50;;
66893;SDS011;53801;55.786;49.142;2023-08-01T11:47:44;3.72;;;1.70;;
66893;SDS011;53801;55.786;49.142;2023-08-01T11:50:14;3.38;;;1.80;;
66893;SDS011;53801;55.786;49.142;2023-08-01T11:52:39;2.97;;;1.80;;
66893;SDS011;53801;55.786;49.142;2023-08-01T11:55:17;4.30;;;1.83;;
66893;SDS011;53801;55.786;49.142;2023-08-01T11:58:16;5.18;;;1.70;;
66893;SDS011;53801;55.786;49.142;2023-08-01T12:00:44;4.32;;;1.95;;
66893;SDS011;53801;55.786;49.142;2023-08-01T12:03:10;4.40;;;2.50;;
66893;SDS011;53801;55.786;49.142;2023-08-01T12:05:39;5.60;;;2.50;;
66893;SDS011;53801;55.786;49.142;2023-08-01T12:08:20;3.75;;;2.53;;
66893;SDS011;53801;55.786;49.142;2023-08-01T12:10:45;7.07;;;2.80;;
66893;SDS011;53801;55.786;49.142;2023-08-01T12:15:54;4.22;;;2.20;;
66893;SDS011;53801;55.786;49.142;2023-08-01T12:18:27;4.05;;;1.90;;
66893;SDS011;53801;55.786;49.142;2023-08-01T12:20:56;5.47;;;1.83;;
66893;SDS011;53801;55.786;49.142;2023-08-01T12:29:45;3.78;;;1.90;;
66893;SDS011;53801;55.786;49.142;2023-08-01T12:32:14;4.72;;;1.60;;
66893;SDS011;53801;55.786;49.142;2023-08-01T12:34:42;3.27;;;1.47;;
66893;SDS011;53801;55.786;49.142;2023-08-01T12:40:18;5.45;;;2.08;;
66893;SDS011;53801;55.786;49.142;2023-08-01T12:42:54;4.10;;;1.77;;
66893;SDS011;53801;55.786;49.142;2023-08-01T12:45:20;3.90;;;2.10;;
66893;SDS011;53801;55.786;49.142;2023-08-01T12:47:48;3.85;;;1.70;;
66893;SDS011;53801;55.786;49.142;2023-08-01T12:50:14;4.30;;;1.75;;
66893;SDS011;53801;55.786;49.142;2023-08-01T12:52:42;1.80;;;1.50;;
66893;SDS011;53801;55.786;49.142;2023-08-01T12:55:07;8.18;;;2.38;;
66893;SDS011;53801;55.786;49.142;2023-08-01T12:57:33;4.70;;;2.17;;
66893;SDS011;53801;55.786;49.142;2023-08-01T13:02:42;4.40;;;1.70;;
66893;SDS011;53801;55.786;49.142;2023-08-01T13:07:38;2.53;;;1.73;;
66893;SDS011;53801;55.786;49.142;2023-08-01T13:10:04;3.43;;;2.00;;
66893;SDS011;53801;55.786;49.142;2023-08-01T13:15:05;3.33;;;2.30;;
66893;SDS011;53801;55.786;49.142;2023-08-01T13:17:31;5.03;;;2.35;;
66893;SDS011;53801;55.786;49.142;2023-08-01T13:19:57;5.78;;;2.55;;
66893;SDS011;53801;55.786;49.142;2023-08-01T13:22:22;4.80;;;2.40;;
66893;SDS011;53801;55.786;49.142;2023-08-01T13:24:48;5.33;;;2.33;;
66893;SDS011;53801;55.786;49.142;2023-08-01T13:27:14;4.78;;;2.58;;
66893;SDS011;53801;55.786;49.142;2023-08-01T13:29:43;3.50;;;2.30;;
66893;SDS011;53801;55.786;49.142;2023-08-01T13:32:16;4.13;;;2.70;;
66893;SDS011;53801;55.786;49.142;2023-08-01T13:34:44;5.85;;;2.95;;
66893;SDS011;53801;55.786;49.142;2023-08-01T13:37:21;4.50;;;2.90;;
66893;SDS011;53801;55.786;49.142;2023-08-01T13:39:50;5.78;;;2.90;;
66893;SDS011;53801;55.786;49.142;2023-08-01T13:42:16;5.53;;;3.15;;
66893;SDS011;53801;55.786;49.142;2023-08-01T13:44:41;5.40;;;2.77;;
66893;SDS011;53801;55.786;49.142;2023-08-01T13:47:07;5.93;;;2.90;;
66893;SDS011;53801;55.786;49.142;2023-08-01T13:49:39;4.43;;;2.40;;
66893;SDS011;53801;55.786;49.142;2023-08-01T13:52:04;4.10;;;2.70;;
66893;SDS011;53801;55.786;49.142;2023-08-01T13:54:30;5.93;;;2.70;;
66893;SDS011;53801;55.786;49.142;2023-08-01T13:56:56;6.30;;;2.92;;
66893;SDS011;53801;55.786;49.142;2023-08-01T13:59:22;5.10;;;2.47;;
66893;SDS011;53801;55.786;49.142;2023-08-01T14:01:48;8.80;;;2.60;;
66893;SDS011;53801;55.786;49.142;2023-08-01T14:04:13;5.73;;;2.10;;
66893;SDS011;53801;55.786;49.142;2023-08-01T14:06:39;4.03;;;2.17;;
66893;SDS011;53801;55.786;49.142;2023-08-01T14:09:05;5.22;;;2.20;;
66893;SDS011;53801;55.786;49.142;2023-08-01T14:11:30;5.03;;;2.10;;
66893;SDS011;53801;55.786;49.142;2023-08-01T14:13:56;5.57;;;2.95;;
66893;SDS011;53801;55.786;49.142;2023-08-01T14:16:22;5.72;;;2.05;;
66893;SDS011;53801;55.786;49.142;2023-08-01T14:18:48;5.72;;;2.17;;
66893;SDS011;53801;55.786;49.142;2023-08-01T14:21:13;4.33;;;2.23;;
66893;SDS011;53801;55.786;49.142;2023-08-01T14:23:39;4.80;;;2.47;;
66893;SDS011;53801;55.786;49.142;2023-08-01T14:26:06;4.40;;;2.15;;
66893;SDS011;53801;55.786;49.142;2023-08-01T14:28:35;4.57;;;2.50;;
66893;SDS011;53801;55.786;49.142;2023-08-01T14:31:57;6.13;;;2.00;;
66893;SDS011;53801;55.786;49.142;2023-08-01T14:34:31;4.53;;;1.98;;
66893;SDS011;53801;55.786;49.142;2023-08-01T14:36:56;5.80;;;2.05;;
66893;SDS011;53801;55.786;49.142;2023-08-01T14:39:25;3.65;;;1.90;;
66893;SDS011;53801;55.786;49.142;2023-08-01T14:41:56;2.92;;;2.00;;
66893;SDS011;53801;55.786;49.142;2023-08-01T14:44:22;3.13;;;1.77;;
66893;SDS011;53801;55.786;49.142;2023-08-01T14:46:47;5.10;;;2.37;;
66893;SDS011;53801;55.786;49.142;2023-08-01T14:49:13;4.10;;;2.20;;
66893;SDS011;53801;55.786;49.142;2023-08-01T14:51:38;2.80;;;2.00;;
66893;SDS011;53801;55.786;49.142;2023-08-01T14:54:04;3.50;;;2.30;;
66893;SDS011;53801;55.786;49.142;2023-08-01T14:56:30;2.95;;;2.03;;
66893;SDS011;53801;55.786;49.142;2023-08-01T15:01:30;4.45;;;2.10;;
66893;SDS011;53801;55.786;49.142;2023-08-01T15:03:56;2.78;;;1.85;;
66893;SDS011;53801;55.786;49.142;2023-08-01T15:06:22;7.47;;;2.25;;
66893;SDS011;53801;55.786;49.142;2023-08-01T15:08:53;9.67;;;3.30;;
66893;SDS011;53801;55.786;49.142;2023-08-01T15:11:39;18.17;;;7.47;;
66893;SDS011;53801;55.786;49.142;2023-08-01T15:14:05;15.82;;;5.82;;
66893;SDS011;53801;55.786;49.142;2023-08-01T15:16:31;27.05;;;11.48;;
66893;SDS011;53801;55.786;49.142;2023-08-01T15:18:57;14.90;;;8.03;;
66893;SDS011;53801;55.786;49.142;2023-08-01T15:24:20;17.80;;;9.77;;
66893;SDS011;53801;55.786;49.142;2023-08-01T15:26:53;17.45;;;9.48;;
66893;SDS011;53801;55.786;49.142;2023-08-01T15:41:17;3.50;;;2.75;;
66893;SDS011;53801;55.786;49.142;2023-08-01T15:46:17;6.75;;;3.25;;
66893;SDS011;53801;55.786;49.142;2023-08-01T15:51:42;4.82;;;3.20;;
66893;SDS011;53801;55.786;49.142;2023-08-01T15:56:56;4.30;;;2.40;;
66893;SDS011;53801;55.786;49.142;2023-08-01T15:59:21;5.55;;;3.00;;
66893;SDS011;53801;55.786;49.142;2023-08-01T16:01:51;3.93;;;2.40;;
66893;SDS011;53801;55.786;49.142;2023-08-01T16:04:16;6.50;;;2.28;;
66893;SDS011;53801;55.786;49.142;2023-08-01T16:06:45;4.65;;;2.40;;
66893;SDS011;53801;55.786;49.142;2023-08-01T16:09:11;5.97;;;2.50;;
66893;SDS011;53801;55.786;49.142;2023-08-01T16:11:37;8.50;;;3.15;;
66893;SDS011;53801;55.786;49.142;2023-08-01T16:14:23;3.70;;;2.30;;
66893;SDS011;53801;55.786;49.142;2023-08-01T16:16:48;3.63;;;2.53;;
66893;SDS011;53801;55.786;49.142;2023-08-01T16:19:14;4.75;;;2.78;;
66893;SDS011;53801;55.786;49.142;2023-08-01T16:21:43;5.13;;;3.40;;
66893;SDS011;53801;55.786;49.142;2023-08-01T16:24:09;11.30;;;7.75;;
66893;SDS011;53801;55.786;49.142;2023-08-01T16:26:34;20.53;;;11.73;;
66893;SDS011;53801;55.786;49.142;2023-08-01T16:29:09;12.47;;;5.93;;
66893;SDS011;53801;55.786;49.142;2023-08-01T16:31:34;13.32;;;6.10;;
66893;SDS011;53801;55.786;49.142;2023-08-01T16:34:00;6.10;;;3.73;;
66893;SDS011;53801;55.786;49.142;2023-08-01T16:36:25;6.55;;;2.78;;
66893;SDS011;53801;55.786;49.142;2023-08-01T16:38:51;4.33;;;2.87;;
66893;SDS011;53801;55.786;49.142;2023-08-01T16:41:16;6.32;;;2.70;;
66893;SDS011;53801;55.786;49.142;2023-08-01T16:43:46;6.43;;;2.67;;
66893;SDS011;53801;55.786;49.142;2023-08-01T16:46:33;4.05;;;2.70;;
66893;SDS011;53801;55.786;49.142;2023-08-01T16:48:59;5.47;;;3.25;;
66893;SDS011;53801;55.786;49.142;2023-08-01T16:51:43;7.67;;;4.40;;
66893;SDS011;53801;55.786;49.142;2023-08-01T16:54:29;8.88;;;3.70;;
66893;SDS011;53801;55.786;49.142;2023-08-01T16:56:57;7.40;;;4.45;;
66893;SDS011;53801;55.786;49.142;2023-08-01T16:59:27;5.95;;;2.80;;
66893;SDS011;53801;55.786;49.142;2023-08-01T17:01:52;4.90;;;2.95;;
66893;SDS011;53801;55.786;49.142;2023-08-01T17:04:18;7.47;;;2.87;;
66893;SDS011;53801;55.786;49.142;2023-08-01T17:06:43;4.55;;;2.85;;
66893;SDS011;53801;55.786;49.142;2023-08-01T17:09:10;5.95;;;3.05;;
66893;SDS011;53801;55.786;49.142;2023-08-01T17:11:38;4.35;;;3.00;;
66893;SDS011;53801;55.786;49.142;2023-08-01T17:17:17;10.85;;;3.40;;
66893;SDS011;53801;55.786;49.142;2023-08-01T17:19:47;8.55;;;3.33;;
66893;SDS011;53801;55.786;49.142;2023-08-01T17:22:13;7.65;;;3.17;;
66893;SDS011;53801;55.786;49.142;2023-08-01T17:24:42;6.97;;;3.17;;
66893;SDS011;53801;55.786;49.142;2023-08-01T17:27:13;6.70;;;2.90;;
66893;SDS011;53801;55.786;49.142;2023-08-01T17:29:42;10.43;;;3.30;;
66893;SDS011;53801;55.786;49.142;2023-08-01T17:32:10;23.45;;;4.43;;
66893;SDS011;53801;55.786;49.142;2023-08-01T17:34:38;6.82;;;3.05;;
66893;SDS011;53801;55.786;49.142;2023-08-01T17:37:04;10.70;;;3.37;;
66893;SDS011;53801;55.786;49.142;2023-08-01T17:39:30;8.65;;;3.17;;
66893;SDS011;53801;55.786;49.142;2023-08-01T17:41:55;6.75;;;3.22;;
66893;SDS011;53801;55.786;49.142;2023-08-01T17:44:26;10.20;;;3.13;;
66893;SDS011;53801;55.786;49.142;2023-08-01T17:46:51;7.90;;;3.25;;
66893;SDS011;53801;55.786;49.142;2023-08-01T17:49:24;11.57;;;3.70;;
66893;SDS011;53801;55.786;49.142;2023-08-01T17:51:52;10.40;;;3.35;;
66893;SDS011;53801;55.786;49.142;2023-08-01T17:54:22;9.10;;;3.60;;
66893;SDS011;53801;55.786;49.142;2023-08-01T18:02:32;9.48;;;4.30;;
66893;SDS011;53801;55.786;49.142;2023-08-01T18:04:57;8.00;;;4.40;;
66893;SDS011;53801;55.786;49.142;2023-08-01T18:07:23;12.50;;;4.40;;
66893;SDS011;53801;55.786;49.142;2023-08-01T18:12:37;11.17;;;4.97;;
66893;SDS011;53801;55.786;49.142;2023-08-01T18:15:03;13.07;;;5.22;;
66893;SDS011;53801;55.786;49.142;2023-08-01T18:17:29;15.35;;;6.90;;
66893;SDS011;53801;55.786;49.142;2023-08-01T18:25:49;20.55;;;11.32;;
66893;SDS011;53801;55.786;49.142;2023-08-01T18:28:14;24.42;;;10.70;;
66893;SDS011;53801;55.786;49.142;2023-08-01T18:30:42;18.73;;;8.68;;
66893;SDS011;53801;55.786;49.142;2023-08-01T18:33:07;13.77;;;7.97;;
66893;SDS011;53801;55.786;49.142;2023-08-01T18:35:39;16.00;;;7.50;;
66893;SDS011;53801;55.786;49.142;2023-08-01T18:38:05;15.77;;;7.95;;
66893;SDS011;53801;55.786;49.142;2023-08-01T18:40:30;16.77;;;9.87;;
66893;SDS011;53801;55.786;49.142;2023-08-01T18:42:57;19.87;;;9.90;;
66893;SDS011;53801;55.786;49.142;2023-08-01T18:45:22;13.63;;;9.20;;
66893;SDS011;53801;55.786;49.142;2023-08-01T18:47:48;15.33;;;10.43;;
66893;SDS011;53801;55.786;49.142;2023-08-01T18:50:16;17.13;;;11.77;;
66893;SDS011;53801;55.786;49.142;2023-08-01T18:52:41;13.88;;;9.20;;
66893;SDS011;53801;55.786;49.142;2023-08-01T18:55:17;13.90;;;8.85;;
66893;SDS011;53801;55.786;49.142;2023-08-01T18:57:43;10.93;;;8.15;;
66893;SDS011;53801;55.786;49.142;2023-08-01T19:00:09;15.55;;;8.13;;
66893;SDS011;53801;55.786;49.142;2023-08-01T19:05:16;12.00;;;6.47;;
66893;SDS011;53801;55.786;49.142;2023-08-01T19:13:12;8.32;;;4.60;;
66893;SDS011;53801;55.786;49.142;2023-08-01T19:15:38;7.60;;;4.90;;
66893;SDS011;53801;55.786;49.142;2023-08-01T19:18:03;11.25;;;4.50;;
66893;SDS011;53801;55.786;49.142;2023-08-01T19:20:29;9.20;;;4.77;;
66893;SDS011;53801;55.786;49.142;2023-08-01T19:22:54;8.13;;;3.85;;
66893;SDS011;53801;55.786;49.142;2023-08-01T19:25:20;6.60;;;3.93;;
66893;SDS011;53801;55.786;49.142;2023-08-01T19:27:46;7.03;;;3.40;;
66893;SDS011;53801;55.786;49.142;2023-08-01T19:30:13;5.65;;;3.50;;
66893;SDS011;53801;55.786;49.142;2023-08-01T19:32:41;5.35;;;3.50;;
66893;SDS011;53801;55.786;49.142;2023-08-01T19:35:07;5.60;;;3.47;;
66893;SDS011;53801;55.786;49.142;2023-08-01T19:37:33;6.13;;;3.50;;
66893;SDS011;53801;55.786;49.142;2023-08-01T19:39:59;7.47;;;3.45;;
66893;SDS011;53801;55.786;49.142;2023-08-01T19:42:24;7.53;;;3.80;;
66893;SDS011;53801;55.786;49.142;2023-08-01T19:45:10;6.65;;;3.25;;
66893;SDS011;53801;55.786;49.142;2023-08-01T19:47:36;9.20;;;4.27;;
66893;SDS011;53801;55.786;49.142;2023-08-01T19:50:02;6.90;;;3.47;;
66893;SDS011;53801;55.786;49.142;2023-08-01T19:52:36;6.20;;;3.67;;
66893;SDS011;53801;55.786;49.142;2023-08-01T19:55:02;7.85;;;3.95;;
66893;SDS011;53801;55.786;49.142;2023-08-01T19:57:29;5.53;;;3.55;;
66893;SDS011;53801;55.786;49.142;2023-08-01T19:59:58;7.43;;;3.75;;
66893;SDS011;53801;55.786;49.142;2023-08-01T20:02:24;7.00;;;3.50;;
66893;SDS011;53801;55.786;49.142;2023-08-01T20:04:50;5.88;;;4.07;;
66893;SDS011;53801;55.786;49.142;2023-08-01T20:07:16;7.20;;;3.43;;
66893;SDS011;53801;55.786;49.142;2023-08-01T20:09:44;6.80;;;3.83;;
66893;SDS011;53801;55.786;49.142;2023-08-01T20:12:15;4.82;;;3.35;;
66893;SDS011;53801;55.786;49.142;2023-08-01T20:14:41;6.82;;;4.13;;